createdAt,value
2023-04-07T00:00:48.412Z,91.30
2023-04-07T00:03:16.352Z,91.30
2023-04-07T00:05:43.160Z,91.40
2023-04-07T00:08:09.936Z,91.40
2023-04-07T00:10:36.628Z,91.50
2023-04-07T00:13:03.315Z,91.50
2023-04-07T00:15:30.053Z,91.70
2023-04-07T00:17:56.786Z,91.50
2023-04-07T00:20:23.576Z,91.60
2023-04-07T00:22:50.415Z,91.60
2023-04-07T00:25:17.168Z,91.80
2023-04-07T00:27:43.813Z,91.70
2023-04-07T00:30:10.861Z,91.70
2023-04-07T00:32:37.573Z,91.60
2023-04-07T00:35:04.662Z,91.50
2023-04-07T00:37:32.642Z,91.50
2023-04-07T00:39:59.434Z,91.40
2023-04-07T00:42:26.102Z,91.40
2023-04-07T00:44:52.891Z,91.50
2023-04-07T00:47:19.954Z,91.50
2023-04-07T00:49:46.695Z,91.50
2023-04-07T00:52:13.344Z,91.40
2023-04-07T00:54:40.074Z,91.30
2023-04-07T00:57:07.123Z,91.40
2023-04-07T00:59:33.920Z,91.60
2023-04-07T01:02:38.093Z,91.60
2023-04-07T01:05:13.923Z,91.50
2023-04-07T01:08:02.743Z,91.50
2023-04-07T01:10:44.292Z,91.50
2023-04-07T01:13:31.810Z,91.50
2023-04-07T01:15:58.975Z,91.50
2023-04-07T01:18:31.764Z,91.60
2023-04-07T01:21:14.127Z,91.40
2023-04-07T01:24:01.952Z,91.40
2023-04-07T01:26:32.680Z,91.40
2023-04-07T01:29:22.402Z,91.40
2023-04-07T01:31:49.203Z,91.30
2023-04-07T01:34:15.931Z,91.40
2023-04-07T01:36:42.765Z,91.30
2023-04-07T01:39:09.494Z,91.30
2023-04-07T01:41:36.385Z,91.20
2023-04-07T01:44:03.276Z,91.30
2023-04-07T01:46:29.916Z,91.40
2023-04-07T01:48:56.873Z,91.30
2023-04-07T01:51:23.526Z,91.30
2023-04-07T01:53:50.181Z,91.30
2023-04-07T01:56:16.923Z,91.20
2023-04-07T01:58:43.719Z,91.20
2023-04-07T02:01:10.452Z,91.20
2023-04-07T02:03:41.719Z,91.20
2023-04-07T02:06:08.506Z,91.10
2023-04-07T02:08:36.296Z,91.10
2023-04-07T02:11:02.966Z,91.00
2023-04-07T02:13:34.026Z,90.90
2023-04-07T02:16:00.667Z,90.80
2023-04-07T02:18:28.425Z,91.00
2023-04-07T02:20:55.035Z,91.00
2023-04-07T02:23:21.745Z,90.90
2023-04-07T02:25:48.419Z,90.80
2023-04-07T02:28:16.370Z,90.70
2023-04-07T02:30:43.111Z,90.60
2023-04-07T02:33:09.782Z,90.50
2023-04-07T02:35:36.464Z,90.40
2023-04-07T02:38:03.241Z,90.40
2023-04-07T02:40:29.925Z,90.40
2023-04-07T02:42:57.608Z,90.30
2023-04-07T02:45:24.351Z,90.50
2023-04-07T02:47:51.061Z,90.50
2023-04-07T02:50:17.867Z,90.40
2023-04-07T02:52:44.552Z,90.30
2023-04-07T02:55:11.227Z,90.40
2023-04-07T02:57:38.004Z,90.40
2023-04-07T03:00:05.268Z,90.30
2023-04-07T03:02:32.011Z,90.10
2023-04-07T03:04:58.707Z,89.90
2023-04-07T03:07:25.447Z,89.70
2023-04-07T03:09:52.204Z,90.10
2023-04-07T03:12:18.877Z,90.00
2023-04-07T03:14:45.640Z,90.00
2023-04-07T03:17:12.380Z,90.00
2023-04-07T03:19:39.132Z,89.90
2023-04-07T03:22:05.891Z,89.70
2023-04-07T03:24:32.533Z,89.60
2023-04-07T03:26:59.384Z,89.50
2023-04-07T03:29:26.012Z,89.60
2023-04-07T03:31:52.672Z,89.70
2023-04-07T03:34:19.270Z,89.70
2023-04-07T03:36:45.912Z,89.70
2023-04-07T03:39:12.727Z,89.70
2023-04-07T03:41:39.362Z,89.70
2023-04-07T03:44:06.013Z,89.70
2023-04-07T03:46:32.740Z,89.90
2023-04-07T03:49:02.419Z,89.90
2023-04-07T03:51:29.166Z,89.70
2023-04-07T03:53:55.949Z,89.90
2023-04-07T03:56:22.653Z,89.90
2023-04-07T03:58:49.426Z,90.00
2023-04-07T04:01:16.706Z,89.90
2023-04-07T04:03:43.539Z,90.10
2023-04-07T04:06:10.277Z,90.00
2023-04-07T04:08:36.926Z,90.40
2023-04-07T04:11:03.766Z,91.10
2023-04-07T04:13:30.401Z,91.60
2023-04-07T04:15:57.177Z,91.80
2023-04-07T04:18:23.910Z,91.60
2023-04-07T04:20:50.578Z,91.70
2023-04-07T04:23:17.266Z,91.40
2023-04-07T04:25:44.056Z,91.40
2023-04-07T04:28:10.799Z,91.20
2023-04-07T04:30:37.463Z,91.30
2023-04-07T04:33:04.194Z,91.70
2023-04-07T04:35:30.977Z,92.00
2023-04-07T04:37:57.616Z,92.50
2023-04-07T04:40:24.221Z,92.80
2023-04-07T04:42:51.031Z,93.10
2023-04-07T04:45:17.690Z,93.30
2023-04-07T04:47:44.672Z,93.40
2023-04-07T04:50:11.454Z,93.40
2023-04-07T04:52:38.140Z,93.30
2023-04-07T04:55:05.134Z,93.30
2023-04-07T04:57:31.757Z,93.40
2023-04-07T04:59:58.402Z,93.20
2023-04-07T05:02:25.233Z,93.10
2023-04-07T05:04:52.175Z,93.00
2023-04-07T05:07:18.940Z,93.00
2023-04-07T05:09:50.766Z,93.10
2023-04-07T05:12:17.430Z,93.00
2023-04-07T05:14:44.068Z,93.10
2023-04-07T05:17:20.717Z,93.20
2023-04-07T05:19:47.394Z,93.40
2023-04-07T05:22:13.996Z,93.70
2023-04-07T05:24:40.755Z,93.80
2023-04-07T05:27:07.449Z,93.80
2023-04-07T05:29:34.104Z,93.80
2023-04-07T05:32:00.755Z,93.70
2023-04-07T05:34:27.938Z,93.70
2023-04-07T05:37:06.841Z,93.70
2023-04-07T05:39:33.413Z,93.60
2023-04-07T05:42:06.227Z,93.50
2023-04-07T05:44:32.912Z,93.50
2023-04-07T05:47:00.632Z,93.50
2023-04-07T05:49:27.297Z,93.50
2023-04-07T05:51:53.977Z,93.50
2023-04-07T05:54:20.645Z,93.40
2023-04-07T05:56:47.266Z,93.30
2023-04-07T05:59:14.948Z,93.50
2023-04-07T06:01:42.803Z,93.80
2023-04-07T06:04:09.830Z,94.10
2023-04-07T06:06:36.509Z,94.20
2023-04-07T06:09:03.439Z,94.20
2023-04-07T06:11:30.091Z,94.20
2023-04-07T06:13:59.155Z,94.10
2023-04-07T06:16:26.037Z,94.10
2023-04-07T06:18:53.849Z,93.90
2023-04-07T06:21:20.529Z,93.80
2023-04-07T06:23:47.398Z,93.70
2023-04-07T06:26:14.329Z,93.80
2023-04-07T06:28:41.007Z,93.90
2023-04-07T06:31:09.125Z,94.20
2023-04-07T06:33:36.125Z,94.60
2023-04-07T06:36:03.121Z,94.80
2023-04-07T06:38:30.791Z,94.80
2023-04-07T06:40:57.578Z,94.70
2023-04-07T06:43:30.755Z,94.80
2023-04-07T06:45:57.521Z,94.80
2023-04-07T06:48:24.187Z,94.70
2023-04-07T06:50:52.053Z,94.70
2023-04-07T06:53:18.837Z,94.60
2023-04-07T06:55:45.567Z,94.40
2023-04-07T06:58:12.588Z,94.20
2023-04-07T07:00:39.287Z,94.50
2023-04-07T07:03:06.066Z,94.80
2023-04-07T07:05:33.564Z,94.90
2023-04-07T07:08:00.307Z,94.80
2023-04-07T07:10:27.281Z,94.80
2023-04-07T07:12:54.074Z,94.70
2023-04-07T07:15:20.701Z,94.70
2023-04-07T07:17:47.408Z,94.60
2023-04-07T07:20:14.187Z,94.60
2023-04-07T07:22:40.816Z,94.80
2023-04-07T07:25:07.833Z,94.60
2023-04-07T07:27:34.603Z,94.30
2023-04-07T07:30:01.403Z,94.10
2023-04-07T07:32:28.243Z,94.10
2023-04-07T07:34:54.849Z,94.00
2023-04-07T07:37:21.541Z,93.70
2023-04-07T07:39:48.156Z,94.00
2023-04-07T07:42:15.124Z,93.90
2023-04-07T07:44:41.899Z,93.70
2023-04-07T07:47:08.562Z,93.50
2023-04-07T07:49:35.189Z,93.50
2023-04-07T07:52:01.885Z,93.60
2023-04-07T07:54:28.486Z,93.50
2023-04-07T07:56:55.141Z,93.60
2023-04-07T07:59:21.739Z,93.60
2023-04-07T08:01:48.569Z,93.20
2023-04-07T08:04:15.383Z,93.50
2023-04-07T08:06:42.183Z,92.90
2023-04-07T08:09:08.997Z,92.40
2023-04-07T08:11:36.275Z,91.90
2023-04-07T08:14:03.071Z,91.60
2023-04-07T08:16:29.889Z,91.60
2023-04-07T08:18:56.622Z,90.90
2023-04-07T08:21:26.587Z,90.60
2023-04-07T08:23:54.351Z,90.40
2023-04-07T08:26:21.019Z,90.50
2023-04-07T08:28:49.453Z,90.40
2023-04-07T08:31:16.228Z,89.70
2023-04-07T08:33:42.850Z,89.90
2023-04-07T08:36:09.596Z,90.30
2023-04-07T08:38:36.371Z,90.30
2023-04-07T08:41:11.850Z,90.70
2023-04-07T08:43:39.240Z,89.50
2023-04-07T08:46:06.103Z,89.20
2023-04-07T08:48:32.796Z,89.10
2023-04-07T08:51:00.358Z,88.30
2023-04-07T08:53:29.972Z,87.70
2023-04-07T08:55:56.683Z,87.20
2023-04-07T08:58:23.428Z,87.20
2023-04-07T09:00:50.064Z,86.90
2023-04-07T09:03:17.094Z,86.80
2023-04-07T09:05:46.911Z,86.60
2023-04-07T09:08:13.504Z,86.40
2023-04-07T09:10:40.137Z,86.20
2023-04-07T09:13:06.910Z,86.30
2023-04-07T09:15:33.546Z,86.50
2023-04-07T09:18:00.441Z,86.40
2023-04-07T09:20:27.124Z,86.60
2023-04-07T09:22:53.906Z,86.80
2023-04-07T09:25:22.287Z,86.30
2023-04-07T09:28:02.842Z,86.30
2023-04-07T09:30:30.848Z,85.90
2023-04-07T09:32:57.905Z,85.90
2023-04-07T09:35:26.063Z,85.30
2023-04-07T09:38:09.141Z,84.80
2023-04-07T09:40:36.196Z,84.70
2023-04-07T09:43:03.880Z,85.00
2023-04-07T09:45:35.384Z,85.10
2023-04-07T09:48:06.622Z,85.40
2023-04-07T09:50:34.042Z,85.50
2023-04-07T09:53:00.703Z,85.40
2023-04-07T09:55:29.674Z,85.40
2023-04-07T09:57:56.483Z,85.40
2023-04-07T10:00:25.296Z,85.70
2023-04-07T10:02:53.038Z,85.70
2023-04-07T10:05:19.977Z,84.40
2023-04-07T10:07:46.614Z,84.50
2023-04-07T10:10:13.244Z,83.80
2023-04-07T10:12:40.010Z,83.90
2023-04-07T10:15:07.038Z,83.40
2023-04-07T10:17:33.976Z,83.70
2023-04-07T10:20:00.723Z,83.80
2023-04-07T10:22:27.588Z,82.70
2023-04-07T10:24:56.100Z,82.60
2023-04-07T10:27:26.133Z,82.80
2023-04-07T10:29:54.280Z,82.70
2023-04-07T10:32:21.004Z,82.00
2023-04-07T10:34:53.761Z,81.70
2023-04-07T10:37:20.607Z,81.20
2023-04-07T10:39:47.890Z,80.70
2023-04-07T10:42:39.503Z,79.90
2023-04-07T10:45:07.037Z,79.80
2023-04-07T10:47:33.753Z,79.90
2023-04-07T10:50:22.434Z,79.60
2023-04-07T10:52:49.734Z,78.80
2023-04-07T10:55:54.313Z,79.70
2023-04-07T10:58:24.628Z,79.00
2023-04-07T11:01:00.326Z,80.30
2023-04-07T11:03:28.136Z,80.40
2023-04-07T11:06:07.031Z,81.00
2023-04-07T11:08:40.678Z,82.50
2023-04-07T11:11:08.450Z,81.30
2023-04-07T11:13:55.317Z,79.30
2023-04-07T11:16:35.790Z,75.00
2023-04-07T11:19:02.557Z,75.60
2023-04-07T11:21:29.241Z,75.10
2023-04-07T11:23:55.837Z,75.70
2023-04-07T11:26:23.629Z,76.20
2023-04-07T11:28:51.672Z,76.20
2023-04-07T11:31:28.691Z,76.20
2023-04-07T11:34:02.691Z,76.30
2023-04-07T11:36:34.082Z,76.60
2023-04-07T11:39:01.002Z,77.00
2023-04-07T11:41:28.238Z,76.90
2023-04-07T11:44:04.693Z,77.50
2023-04-07T11:46:31.390Z,77.90
2023-04-07T11:49:14.547Z,78.40
2023-04-07T11:51:43.298Z,75.20
2023-04-07T11:54:10.536Z,73.70
2023-04-07T11:56:46.933Z,73.20
2023-04-07T11:59:23.354Z,72.40
2023-04-07T12:01:50.798Z,72.80
2023-04-07T12:04:17.939Z,73.80
2023-04-07T12:06:46.067Z,74.00
2023-04-07T12:09:32.354Z,74.10
2023-04-07T12:11:59.077Z,73.80
2023-04-07T12:14:26.292Z,74.80
2023-04-07T12:16:53.354Z,74.90
2023-04-07T12:19:20.198Z,75.00
2023-04-07T12:21:46.924Z,74.80
2023-04-07T12:24:13.563Z,74.90
2023-04-07T12:26:40.347Z,74.90
2023-04-07T12:29:07.100Z,74.60
2023-04-07T12:31:33.825Z,74.70
2023-04-07T12:34:00.638Z,74.10
2023-04-07T12:36:27.257Z,73.40
2023-04-07T12:38:54.275Z,72.50
2023-04-07T12:41:21.012Z,72.00
2023-04-07T12:43:47.755Z,71.90
2023-04-07T12:46:14.648Z,72.00
2023-04-07T12:48:41.381Z,71.80
2023-04-07T12:51:10.310Z,72.40
2023-04-07T12:53:36.991Z,72.60
2023-04-07T12:56:03.652Z,72.60
2023-04-07T12:58:30.240Z,72.30
2023-04-07T13:00:56.954Z,72.30
2023-04-07T13:03:23.936Z,72.60
2023-04-07T13:05:50.664Z,72.60
2023-04-07T13:08:17.362Z,72.40
2023-04-07T13:10:44.059Z,72.30
2023-04-07T13:13:10.809Z,72.40
2023-04-07T13:15:37.405Z,72.60
2023-04-07T13:18:04.158Z,72.80
2023-04-07T13:20:30.806Z,73.00
2023-04-07T13:23:07.438Z,72.90
2023-04-07T13:25:34.755Z,72.80
2023-04-07T13:28:01.546Z,73.00
2023-04-07T13:30:28.255Z,72.70
2023-04-07T13:32:54.990Z,72.70
2023-04-07T13:35:21.768Z,72.80
2023-04-07T13:37:48.633Z,72.80
2023-04-07T13:40:15.257Z,72.90
2023-04-07T13:42:42.567Z,72.90
2023-04-07T13:45:09.586Z,72.90
2023-04-07T13:47:36.263Z,72.80
2023-04-07T13:50:03.334Z,72.60
2023-04-07T13:52:30.374Z,72.60
2023-04-07T13:54:57.078Z,72.60
2023-04-07T13:57:23.778Z,72.70
2023-04-07T13:59:51.102Z,72.70
2023-04-07T14:02:18.373Z,72.30
2023-04-07T14:04:45.374Z,72.20
2023-04-07T14:07:12.139Z,72.30
2023-04-07T14:09:38.839Z,71.80
2023-04-07T14:12:06.023Z,71.80
2023-04-07T14:14:32.642Z,71.60
2023-04-07T14:16:59.532Z,71.70
2023-04-07T14:19:26.185Z,71.70
2023-04-07T14:21:52.919Z,71.40
2023-04-07T14:24:19.563Z,71.80
2023-04-07T14:26:46.345Z,71.60
2023-04-07T14:29:13.236Z,71.60
2023-04-07T14:31:40.106Z,71.70
2023-04-07T14:34:06.935Z,71.90
2023-04-07T14:36:33.832Z,72.10
2023-04-07T14:39:00.521Z,72.40
2023-04-07T14:41:27.364Z,72.40
2023-04-07T14:43:54.295Z,72.60
2023-04-07T14:46:21.741Z,72.80
2023-04-07T14:48:48.389Z,72.80
2023-04-07T14:51:15.082Z,73.00
2023-04-07T14:53:41.860Z,72.80
2023-04-07T14:56:08.534Z,73.00
2023-04-07T14:58:35.168Z,73.20
2023-04-07T15:01:03.392Z,73.50
2023-04-07T15:03:31.935Z,73.60
2023-04-07T15:05:58.744Z,73.40
2023-04-07T15:08:25.416Z,73.40
2023-04-07T15:10:52.031Z,73.40
2023-04-07T15:13:18.677Z,73.50
2023-04-07T15:15:45.335Z,73.50
2023-04-07T15:18:12.097Z,73.70
2023-04-07T15:20:38.736Z,73.70
2023-04-07T15:23:05.473Z,73.80
2023-04-07T15:25:32.192Z,73.90
2023-04-07T15:27:58.813Z,74.10
2023-04-07T15:30:25.529Z,74.40
2023-04-07T15:33:13.211Z,74.60
2023-04-07T15:35:43.104Z,74.50
2023-04-07T15:38:10.239Z,74.70
2023-04-07T15:40:38.563Z,74.60
2023-04-07T15:43:05.302Z,74.80
2023-04-07T15:45:32.599Z,74.80
2023-04-07T15:47:59.289Z,74.50
2023-04-07T15:50:26.091Z,74.50
2023-04-07T15:52:52.818Z,74.40
2023-04-07T15:55:19.567Z,74.40
2023-04-07T15:57:46.470Z,74.60
2023-04-07T16:00:13.580Z,74.40
2023-04-07T16:02:41.861Z,74.50
2023-04-07T16:05:09.605Z,74.50
2023-04-07T16:07:36.228Z,74.50
2023-04-07T16:10:03.043Z,74.60
2023-04-07T16:12:30.327Z,74.80
2023-04-07T16:14:57.177Z,75.00
2023-04-07T16:17:24.875Z,75.10
2023-04-07T16:19:51.733Z,75.00
2023-04-07T16:22:18.449Z,74.90
2023-04-07T16:24:45.132Z,74.90
2023-04-07T16:27:11.856Z,75.00
2023-04-07T16:29:38.472Z,75.10
2023-04-07T16:32:05.371Z,75.30
2023-04-07T16:34:32.115Z,75.20
2023-04-07T16:36:58.855Z,75.20
2023-04-07T16:39:26.258Z,75.00
2023-04-07T16:41:54.856Z,75.10
2023-04-07T16:44:21.533Z,75.20
2023-04-07T16:46:48.142Z,75.20
2023-04-07T16:49:14.747Z,75.20
2023-04-07T16:51:41.427Z,75.10
2023-04-07T16:54:08.069Z,75.00
2023-04-07T16:56:34.947Z,75.00
2023-04-07T16:59:03.899Z,75.00
2023-04-07T17:01:30.843Z,74.90
2023-04-07T17:03:57.705Z,75.10
2023-04-07T17:06:24.880Z,75.10
2023-04-07T17:08:54.733Z,75.30
2023-04-07T17:11:21.461Z,75.40
2023-04-07T17:13:48.382Z,75.40
2023-04-07T17:16:15.504Z,75.50
2023-04-07T17:18:42.296Z,75.30
2023-04-07T17:21:08.956Z,75.40
2023-04-07T17:23:35.664Z,75.40
2023-04-07T17:26:02.246Z,75.70
2023-04-07T17:28:28.871Z,75.90
2023-04-07T17:30:55.673Z,75.90
2023-04-07T17:33:22.399Z,76.00
2023-04-07T17:35:49.071Z,76.10
2023-04-07T17:38:16.077Z,76.00
2023-04-07T17:40:43.764Z,76.20
2023-04-07T17:43:10.773Z,76.30
2023-04-07T17:45:37.513Z,76.30
2023-04-07T17:48:04.469Z,76.30
2023-04-07T17:50:31.271Z,76.30
2023-04-07T17:52:58.615Z,76.40
2023-04-07T17:55:25.228Z,76.40
2023-04-07T17:57:51.826Z,76.70
2023-04-07T18:00:18.776Z,76.70
2023-04-07T18:02:45.729Z,76.80
2023-04-07T18:05:12.646Z,76.80
2023-04-07T18:07:40.322Z,76.80
2023-04-07T18:10:09.000Z,76.90
2023-04-07T18:12:37.199Z,76.90
2023-04-07T18:15:04.019Z,76.90
2023-04-07T18:17:30.982Z,77.00
2023-04-07T18:19:57.741Z,77.10
2023-04-07T18:22:26.038Z,77.20
2023-04-07T18:24:52.742Z,77.30
2023-04-07T18:27:19.371Z,77.40
2023-04-07T18:29:46.024Z,77.40
2023-04-07T18:32:12.665Z,77.50
2023-04-07T18:34:41.292Z,77.50
2023-04-07T18:37:08.078Z,77.60
2023-04-07T18:39:34.968Z,77.60
2023-04-07T18:42:01.793Z,77.70
2023-04-07T18:44:31.805Z,77.70
2023-04-07T18:46:58.687Z,77.70
2023-04-07T18:49:27.874Z,78.00
2023-04-07T18:51:55.599Z,78.10
2023-04-07T18:54:22.340Z,78.10
2023-04-07T18:56:49.105Z,78.20
2023-04-07T18:59:15.842Z,78.10
2023-04-07T19:01:42.679Z,78.30
2023-04-07T19:04:10.181Z,78.50
2023-04-07T19:06:37.052Z,78.60
2023-04-07T19:09:04.001Z,78.70
2023-04-07T19:11:30.880Z,78.90
2023-04-07T19:13:57.710Z,79.00
2023-04-07T19:16:24.941Z,79.10
2023-04-07T19:18:52.073Z,79.30
2023-04-07T19:21:18.960Z,79.40
2023-04-07T19:23:45.875Z,79.50
2023-04-07T19:26:13.086Z,79.60
2023-04-07T19:28:40.021Z,79.80
2023-04-07T19:31:07.061Z,79.80
2023-04-07T19:33:33.987Z,79.90
2023-04-07T19:36:00.865Z,80.10
2023-04-07T19:38:28.374Z,80.30
2023-04-07T19:40:55.013Z,80.30
2023-04-07T19:43:21.622Z,80.30
2023-04-07T19:45:48.346Z,80.30
2023-04-07T19:48:15.633Z,80.40
2023-04-07T19:50:42.357Z,80.40
2023-04-07T19:53:09.420Z,80.50
2023-04-07T19:55:35.984Z,80.60
2023-04-07T19:58:02.722Z,80.70
2023-04-07T20:00:31.647Z,80.80
2023-04-07T20:02:59.822Z,80.80
2023-04-07T20:05:26.852Z,81.00
2023-04-07T20:07:53.577Z,81.00
2023-04-07T20:10:20.195Z,81.10
2023-04-07T20:12:46.846Z,81.10
2023-04-07T20:15:13.697Z,81.20
2023-04-07T20:17:40.462Z,81.20
2023-04-07T20:20:07.600Z,81.20
2023-04-07T20:22:34.760Z,81.20
2023-04-07T20:25:01.387Z,81.10
2023-04-07T20:27:28.016Z,81.20
2023-04-07T20:29:54.696Z,81.30
2023-04-07T20:32:21.469Z,81.20
2023-04-07T20:34:48.117Z,81.30
2023-04-07T20:37:14.712Z,81.30
2023-04-07T20:39:41.476Z,81.30
2023-04-07T20:42:08.058Z,81.40
2023-04-07T20:44:34.801Z,81.40
2023-04-07T20:47:07.839Z,81.40
2023-04-07T20:49:34.494Z,81.40
2023-04-07T20:52:01.168Z,81.40
2023-04-07T20:54:27.822Z,81.40
2023-04-07T20:56:54.497Z,81.50
2023-04-07T20:59:21.246Z,81.50
2023-04-07T21:01:49.015Z,81.50
2023-04-07T21:04:15.766Z,81.50
2023-04-07T21:06:42.599Z,81.60
2023-04-07T21:09:09.471Z,81.70
2023-04-07T21:11:36.625Z,81.80
2023-04-07T21:14:03.561Z,81.80
2023-04-07T21:16:30.341Z,81.80
2023-04-07T21:18:57.100Z,81.90
2023-04-07T21:21:23.987Z,81.90
2023-04-07T21:23:50.609Z,81.90
2023-04-07T21:26:17.214Z,82.00
2023-04-07T21:28:43.883Z,82.00
2023-04-07T21:31:10.579Z,82.10
2023-04-07T21:33:37.267Z,82.20
2023-04-07T21:36:04.179Z,82.30
2023-04-07T21:38:30.845Z,82.40
2023-04-07T21:40:57.626Z,82.50
2023-04-07T21:43:25.032Z,82.50
2023-04-07T21:45:51.764Z,82.60
2023-04-07T21:48:18.374Z,82.50
2023-04-07T21:50:45.016Z,82.60
2023-04-07T21:53:11.665Z,82.70
2023-04-07T21:55:38.399Z,82.80
2023-04-07T21:58:05.009Z,82.70
2023-04-07T22:00:31.732Z,82.80
2023-04-07T22:02:58.558Z,82.90
2023-04-07T22:05:25.472Z,83.00
2023-04-07T22:07:52.127Z,83.00
2023-04-07T22:10:18.908Z,83.20
2023-04-07T22:12:45.560Z,83.30
2023-04-07T22:15:12.265Z,83.30
2023-04-07T22:17:38.992Z,83.30
2023-04-07T22:20:07.104Z,83.40
2023-04-07T22:22:33.794Z,83.40
2023-04-07T22:25:00.442Z,83.30
2023-04-07T22:27:27.220Z,83.50
2023-04-07T22:29:54.280Z,83.60
2023-04-07T22:32:21.071Z,83.70
2023-04-07T22:34:47.747Z,83.80
2023-04-07T22:37:14.488Z,83.90
2023-04-07T22:39:41.066Z,83.90
2023-04-07T22:42:07.720Z,84.00
2023-04-07T22:44:34.410Z,84.00
2023-04-07T22:47:01.026Z,84.00
2023-04-07T22:49:27.644Z,83.90
2023-04-07T22:51:54.513Z,84.00
2023-04-07T22:54:21.135Z,84.00
2023-04-07T22:56:47.711Z,84.10
2023-04-07T22:59:14.425Z,84.20
2023-04-07T23:01:41.063Z,84.10
2023-04-07T23:04:07.825Z,84.10
2023-04-07T23:06:34.479Z,84.10
2023-04-07T23:09:01.223Z,84.10
2023-04-07T23:11:27.849Z,84.20
2023-04-07T23:13:54.547Z,84.20
2023-04-07T23:16:21.263Z,84.30
2023-04-07T23:18:48.066Z,84.30
2023-04-07T23:21:14.971Z,84.30
2023-04-07T23:23:41.556Z,84.30
2023-04-07T23:26:08.179Z,84.40
2023-04-07T23:28:34.820Z,84.40
2023-04-07T23:31:01.516Z,84.40
2023-04-07T23:33:29.178Z,84.40
2023-04-07T23:35:55.910Z,84.50
2023-04-07T23:38:22.626Z,84.50
2023-04-07T23:40:49.309Z,84.60
2023-04-07T23:43:15.974Z,84.50
2023-04-07T23:45:42.680Z,84.60
2023-04-07T23:48:09.359Z,84.60
2023-04-07T23:50:36.064Z,84.70
2023-04-07T23:53:02.921Z,84.80
2023-04-07T23:55:29.508Z,84.90
2023-04-07T23:57:56.096Z,84.90
